createdAt,value
2018-04-22T00:02:01.201Z,25.33
2018-04-22T00:04:29.562Z,22.63
2018-04-22T00:06:57.170Z,20.13
2018-04-22T00:09:24.776Z,22.30
2018-04-22T00:11:52.356Z,23.17
2018-04-22T00:14:20.730Z,25.10
2018-04-22T00:16:48.328Z,22.10
2018-04-22T00:19:15.938Z,23.30
2018-04-22T00:21:44.280Z,24.13
2018-04-22T00:24:11.901Z,25.60
2018-04-22T00:26:40.252Z,24.20
2018-04-22T00:29:07.850Z,26.73
2018-04-22T00:31:35.527Z,21.33
2018-04-22T00:34:03.172Z,21.87
2018-04-22T00:36:30.829Z,24.03
2018-04-22T00:38:58.467Z,27.00
2018-04-22T00:41:26.852Z,22.73
2018-04-22T00:43:55.251Z,25.53
2018-04-22T00:46:22.850Z,25.93
2018-04-22T00:48:50.503Z,22.87
2018-04-22T00:51:18.100Z,21.77
2018-04-22T00:53:58.229Z,22.67
2018-04-22T00:56:25.817Z,22.17
2018-04-22T00:58:54.192Z,23.80
2018-04-22T01:01:22.610Z,21.53
2018-04-22T01:03:50.206Z,22.03
2018-04-22T01:06:17.756Z,23.87
2018-04-22T01:08:45.360Z,27.20
2018-04-22T01:11:13.728Z,20.37
2018-04-22T01:13:41.367Z,21.77
2018-04-22T01:16:08.933Z,22.17
2018-04-22T01:18:36.564Z,23.80
2018-04-22T01:21:04.170Z,20.07
2018-04-22T01:23:32.532Z,22.97
2018-04-22T01:26:00.084Z,18.90
2018-04-22T01:28:27.680Z,22.10
2018-04-22T01:30:56.057Z,20.43
2018-04-22T01:33:24.458Z,19.13
2018-04-22T01:35:52.040Z,22.63
2018-04-22T01:38:19.688Z,23.33
2018-04-22T01:40:47.255Z,18.83
2018-04-22T01:43:16.754Z,19.87
2018-04-22T01:45:44.339Z,19.07
2018-04-22T01:48:11.899Z,20.90
2018-04-22T01:50:39.476Z,20.97
2018-04-22T01:53:07.047Z,20.73
2018-04-22T01:55:35.420Z,20.10
2018-04-22T01:58:03.868Z,18.90
2018-04-22T02:00:31.425Z,16.50
2018-04-22T02:02:59.012Z,21.00
2018-04-22T02:05:26.595Z,17.67
2018-04-22T02:07:54.926Z,20.47
2018-04-22T02:10:22.479Z,19.43
2018-04-22T02:12:50.058Z,20.33
2018-04-22T02:15:17.649Z,22.37
2018-04-22T02:17:46.299Z,20.40
2018-04-22T02:20:13.887Z,24.00
2018-04-22T02:22:41.456Z,26.27
2018-04-22T02:25:09.072Z,19.30
2018-04-22T02:27:36.650Z,19.97
2018-04-22T02:30:04.229Z,17.80
2018-04-22T02:32:31.826Z,21.40
2018-04-22T02:34:59.464Z,18.13
2018-04-22T02:37:27.012Z,20.63
2018-04-22T02:39:54.615Z,18.60
2018-04-22T02:42:22.178Z,23.33
2018-04-22T02:44:49.820Z,23.07
2018-04-22T02:47:17.418Z,20.43
2018-04-22T02:49:45.819Z,20.10
2018-04-22T02:52:13.433Z,23.60
2018-04-22T02:54:41.057Z,24.10
2018-04-22T02:57:08.655Z,19.20
2018-04-22T02:59:36.264Z,20.80
2018-04-22T03:02:03.842Z,19.90
2018-04-22T03:04:31.470Z,20.63
2018-04-22T03:06:59.822Z,20.80
2018-04-22T03:09:27.443Z,22.23
2018-04-22T03:11:55.016Z,20.77
2018-04-22T03:14:22.601Z,20.17
2018-04-22T03:16:50.190Z,21.53
2018-04-22T03:19:17.806Z,21.63
2018-04-22T03:21:45.371Z,22.93
2018-04-22T03:24:12.955Z,19.77
2018-04-22T03:26:41.320Z,29.50
2018-04-22T03:29:09.003Z,18.57
2018-04-22T03:31:37.340Z,20.87
2018-04-22T03:34:04.914Z,22.40
2018-04-22T03:36:32.507Z,23.20
2018-04-22T03:39:00.851Z,20.47
2018-04-22T03:41:28.388Z,20.77
2018-04-22T03:43:55.978Z,19.67
2018-04-22T03:46:23.582Z,20.27
2018-04-22T03:48:51.172Z,19.40
2018-04-22T03:51:18.747Z,23.03
2018-04-22T03:53:46.366Z,21.37
2018-04-22T03:56:13.966Z,19.23
2018-04-22T03:58:41.595Z,20.67
2018-04-22T04:01:09.155Z,24.80
2018-04-22T04:03:36.729Z,21.37
2018-04-22T04:06:04.338Z,25.77
2018-04-22T04:08:31.926Z,22.60
2018-04-22T04:10:59.551Z,26.67
2018-04-22T04:13:27.213Z,21.60
2018-04-22T04:15:54.782Z,24.17
2018-04-22T04:21:47.795Z,23.63
2018-04-22T04:27:41.866Z,22.97
2018-04-22T04:30:09.455Z,23.60
2018-04-22T04:32:37.041Z,29.23
2018-04-22T04:35:04.636Z,24.80
2018-04-22T04:37:32.249Z,21.17
2018-04-22T04:40:00.634Z,21.57
2018-04-22T04:42:28.224Z,22.87
2018-04-22T04:44:55.832Z,27.13
2018-04-22T04:47:23.466Z,22.57
2018-04-22T04:49:51.031Z,23.90
2018-04-22T04:52:18.609Z,22.60
2018-04-22T04:54:46.225Z,22.73
2018-04-22T04:57:13.828Z,20.00
2018-04-22T04:59:41.456Z,17.70
2018-04-22T05:02:09.063Z,19.00
2018-04-22T05:04:36.739Z,16.63
2018-04-22T05:07:05.111Z,16.80
2018-04-22T05:09:32.744Z,16.83
2018-04-22T05:12:00.325Z,18.87
2018-04-22T05:14:27.924Z,19.40
2018-04-22T05:16:55.539Z,16.10
2018-04-22T05:19:23.154Z,19.10
2018-04-22T05:21:50.742Z,16.73
2018-04-22T05:24:18.346Z,16.97
2018-04-22T05:26:46.818Z,22.13
2018-04-22T05:29:14.431Z,19.37
2018-04-22T05:31:42.040Z,17.43
2018-04-22T05:34:09.641Z,19.37
2018-04-22T05:36:37.269Z,18.50
2018-04-22T05:39:06.516Z,18.50
2018-04-22T05:41:34.122Z,17.37
2018-04-22T05:44:02.521Z,16.37
2018-04-22T05:46:30.148Z,19.07
2018-04-22T05:48:58.503Z,17.47
2018-04-22T05:51:26.135Z,24.08
2018-04-22T05:53:53.753Z,20.65
2018-04-22T05:56:21.432Z,19.33
2018-04-22T05:58:49.070Z,17.33
2018-04-22T06:01:18.356Z,18.92
2018-04-22T06:03:45.970Z,13.80
2018-04-22T06:06:13.615Z,14.18
2018-04-22T06:08:41.368Z,16.60
2018-04-22T06:11:09.869Z,14.60
2018-04-22T06:13:38.247Z,14.85
2018-04-22T06:16:05.879Z,17.37
2018-04-22T06:18:34.544Z,16.58
2018-04-22T06:21:02.154Z,16.98
2018-04-22T06:23:29.777Z,17.00
2018-04-22T06:25:57.386Z,19.23
2018-04-22T06:28:25.088Z,17.42
2018-04-22T06:30:52.693Z,15.43
2018-04-22T06:33:20.349Z,15.63
2018-04-22T06:35:47.949Z,15.23
2018-04-22T06:38:15.614Z,19.15
2018-04-22T06:40:43.240Z,13.80
2018-04-22T06:43:10.884Z,14.77
2018-04-22T06:45:38.487Z,15.80
2018-04-22T06:48:06.112Z,14.48
2018-04-22T06:50:33.742Z,17.08
2018-04-22T06:53:01.344Z,14.63
2018-04-22T06:55:28.936Z,17.75
2018-04-22T06:57:56.547Z,17.25
2018-04-22T07:00:24.131Z,14.60
2018-04-22T07:02:51.742Z,13.70
2018-04-22T07:05:20.226Z,15.02
2018-04-22T07:07:48.102Z,14.43
2018-04-22T07:10:15.751Z,15.45
2018-04-22T07:12:44.088Z,13.77
2018-04-22T07:15:11.673Z,14.60
2018-04-22T07:17:39.281Z,13.77
2018-04-22T07:20:06.829Z,13.43
2018-04-22T07:22:34.396Z,12.70
2018-04-22T07:25:01.982Z,13.18
2018-04-22T07:27:29.568Z,14.55
2018-04-22T07:29:57.159Z,14.48
2018-04-22T07:32:24.993Z,13.20
2018-04-22T07:34:52.582Z,13.10
2018-04-22T07:37:20.204Z,14.95
2018-04-22T07:39:47.899Z,13.70
2018-04-22T07:42:16.311Z,13.93
2018-04-22T07:44:43.929Z,14.38
2018-04-22T07:47:11.542Z,14.07
2018-04-22T07:49:39.213Z,15.57
2018-04-22T07:52:06.822Z,13.18
2018-04-22T07:54:35.175Z,13.13
2018-04-22T07:57:02.758Z,14.40
2018-04-22T07:59:30.484Z,12.95
2018-04-22T08:01:58.123Z,13.35
2018-04-22T08:04:25.764Z,14.52
2018-04-22T08:06:53.527Z,16.10
2018-04-22T08:09:21.117Z,15.43
2018-04-22T08:11:48.732Z,14.35
2018-04-22T08:14:16.300Z,14.68
2018-04-22T08:16:43.918Z,14.68
2018-04-22T08:19:11.493Z,15.27
2018-04-22T08:21:39.838Z,14.25
2018-04-22T08:24:07.391Z,13.77
2018-04-22T08:26:34.970Z,15.10
2018-04-22T08:29:02.532Z,13.50
2018-04-22T08:31:30.873Z,15.95
2018-04-22T08:33:58.501Z,14.13
2018-04-22T08:36:26.819Z,12.63
2018-04-22T08:38:54.403Z,15.10
2018-04-22T08:41:22.010Z,13.75
2018-04-22T08:43:49.614Z,12.48
2018-04-22T08:46:17.265Z,13.07
2018-04-22T08:48:44.883Z,11.43
2018-04-22T08:51:12.472Z,13.00
2018-04-22T08:53:40.199Z,12.48
2018-04-22T08:56:08.586Z,12.27
2018-04-22T08:58:36.202Z,14.95
2018-04-22T09:01:03.816Z,13.30
2018-04-22T09:03:31.450Z,12.27
2018-04-22T09:05:59.069Z,11.75
2018-04-22T09:08:26.711Z,12.23
2018-04-22T09:10:54.387Z,13.23
2018-04-22T09:13:22.047Z,11.75
2018-04-22T09:15:49.668Z,14.30
2018-04-22T09:18:17.399Z,13.27
2018-04-22T09:20:45.139Z,11.93
2018-04-22T09:23:13.576Z,11.90
2018-04-22T09:25:41.296Z,14.13
2018-04-22T09:28:09.679Z,11.45
2018-04-22T09:30:37.471Z,11.43
2018-04-22T09:33:05.102Z,10.55
2018-04-22T09:35:32.792Z,12.02
2018-04-22T09:38:00.461Z,14.10
2018-04-22T09:40:28.073Z,17.35
2018-04-22T09:42:55.672Z,12.35
2018-04-22T09:45:23.272Z,10.40
2018-04-22T09:47:50.859Z,11.10
2018-04-22T09:50:19.256Z,12.90
2018-04-22T09:52:46.911Z,10.10
2018-04-22T09:55:15.264Z,9.32
2018-04-22T09:57:43.713Z,11.18
2018-04-22T10:00:11.333Z,10.07
2018-04-22T10:02:39.677Z,9.52
2018-04-22T10:05:08.117Z,10.80
2018-04-22T10:07:35.740Z,13.30
2018-04-22T10:10:04.113Z,8.32
2018-04-22T10:12:32.506Z,7.47
2018-04-22T10:15:00.891Z,7.15
2018-04-22T10:17:29.282Z,10.90
2018-04-22T10:19:56.863Z,10.20
2018-04-22T10:22:24.491Z,10.50
2018-04-22T10:24:52.150Z,8.65
2018-04-22T10:27:19.787Z,9.00
2018-04-22T10:29:48.153Z,10.00
2018-04-22T10:32:15.782Z,6.85
2018-04-22T10:34:43.428Z,9.13
2018-04-22T10:37:11.160Z,9.88
2018-04-22T10:39:38.800Z,11.43
2018-04-22T10:42:06.473Z,9.43
2018-04-22T10:44:34.819Z,10.40
2018-04-22T10:47:02.440Z,9.07
2018-04-22T10:49:30.065Z,8.38
2018-04-22T10:51:58.650Z,9.35
2018-04-22T10:54:27.071Z,10.02
2018-04-22T10:56:54.783Z,8.27
2018-04-22T10:59:22.438Z,9.20
2018-04-22T11:01:50.077Z,7.78
2018-04-22T11:04:17.769Z,11.80
2018-04-22T11:06:45.449Z,8.15
2018-04-22T11:09:14.018Z,10.65
2018-04-22T11:11:42.391Z,9.48
2018-04-22T11:14:10.021Z,10.50
2018-04-22T11:16:38.560Z,10.82
2018-04-22T11:19:06.205Z,8.57
2018-04-22T11:21:33.892Z,11.27
2018-04-22T11:24:01.788Z,9.85
2018-04-22T11:26:29.359Z,7.72
2018-04-22T11:28:57.040Z,8.10
2018-04-22T11:31:24.649Z,10.43
2018-04-22T11:33:52.872Z,12.27
2018-04-22T11:36:20.498Z,8.23
2018-04-22T11:38:48.100Z,9.40
2018-04-22T11:41:16.505Z,12.05
2018-04-22T11:43:44.122Z,7.25
2018-04-22T11:46:11.761Z,7.80
2018-04-22T11:48:39.380Z,9.00
2018-04-22T11:51:07.021Z,9.50
2018-04-22T11:53:35.475Z,9.68
2018-04-22T11:56:03.087Z,9.77
2018-04-22T11:58:31.462Z,8.27
2018-04-22T12:00:59.156Z,8.48
2018-04-22T12:03:26.792Z,8.93
2018-04-22T12:05:54.489Z,13.27
2018-04-22T12:08:22.332Z,10.18
2018-04-22T12:10:49.980Z,9.30
2018-04-22T12:13:18.584Z,7.87
2018-04-22T12:15:46.233Z,8.40
2018-04-22T12:18:13.804Z,9.80
2018-04-22T12:20:41.528Z,8.88
2018-04-22T12:23:09.076Z,11.82
2018-04-22T12:25:36.678Z,10.70
2018-04-22T12:28:04.280Z,8.70
2018-04-22T12:30:33.525Z,8.73
2018-04-22T12:33:01.048Z,10.00
2018-04-22T12:35:29.408Z,8.50
2018-04-22T12:37:56.935Z,12.27
2018-04-22T12:40:24.480Z,7.82
2018-04-22T12:42:52.064Z,9.93
2018-04-22T12:45:19.615Z,6.25
2018-04-22T12:47:47.198Z,7.45
2018-04-22T12:50:14.724Z,7.68
2018-04-22T12:52:42.257Z,9.63
2018-04-22T12:55:09.770Z,8.73
2018-04-22T12:57:37.310Z,9.18
2018-04-22T13:00:04.832Z,11.18
2018-04-22T13:02:32.371Z,8.10
2018-04-22T13:05:00.664Z,10.75
2018-04-22T13:07:28.212Z,7.87
2018-04-22T13:09:55.735Z,6.93
2018-04-22T13:12:23.274Z,8.30
2018-04-22T13:14:50.798Z,6.30
2018-04-22T13:17:18.343Z,6.45
2018-04-22T13:19:45.937Z,8.57
2018-04-22T13:22:13.527Z,5.80
2018-04-22T13:24:41.078Z,6.87
2018-04-22T13:27:08.775Z,3.42
2018-04-22T13:29:36.336Z,5.87
2018-04-22T13:32:03.981Z,8.10
2018-04-22T13:34:32.395Z,7.12
2018-04-22T13:37:00.049Z,4.80
2018-04-22T13:39:27.615Z,8.65
2018-04-22T13:41:55.209Z,4.47
2018-04-22T13:44:22.852Z,4.60
2018-04-22T13:46:50.444Z,5.32
2018-04-22T13:49:18.060Z,5.97
2018-04-22T13:51:45.709Z,5.15
2018-04-22T13:54:13.323Z,7.32
2018-04-22T13:56:40.937Z,5.60
2018-04-22T13:59:09.288Z,8.55
2018-04-22T14:01:38.466Z,5.93
2018-04-22T14:04:06.857Z,6.47
2018-04-22T14:06:35.280Z,7.60
2018-04-22T14:09:02.878Z,7.32
2018-04-22T14:11:31.369Z,4.80
2018-04-22T14:13:59.698Z,6.70
2018-04-22T14:16:27.280Z,8.13
2018-04-22T14:18:54.859Z,7.37
2018-04-22T14:21:22.459Z,4.65
2018-04-22T14:23:50.072Z,7.97
2018-04-22T14:26:17.684Z,7.03
2018-04-22T14:28:45.264Z,4.57
2018-04-22T14:31:12.994Z,7.60
2018-04-22T14:33:40.572Z,7.28
2018-04-22T14:36:08.286Z,4.37
2018-04-22T14:38:36.688Z,4.53
2018-04-22T14:41:04.283Z,5.97
2018-04-22T14:43:32.173Z,5.97
2018-04-22T14:46:16.535Z,7.18
2018-04-22T14:48:55.945Z,7.62
2018-04-22T14:51:23.556Z,5.28
2018-04-22T14:53:51.177Z,7.80
2018-04-22T14:56:18.797Z,8.30
2018-04-22T14:58:46.443Z,5.20
2018-04-22T15:01:14.057Z,5.85
2018-04-22T15:03:41.691Z,6.18
2018-04-22T15:06:09.289Z,7.25
2018-04-22T15:08:36.986Z,5.62
2018-04-22T15:11:04.568Z,6.12
2018-04-22T15:13:32.171Z,9.82
2018-04-22T15:15:59.754Z,8.40
2018-04-22T15:18:27.339Z,4.20
2018-04-22T15:20:54.957Z,5.00
2018-04-22T15:26:21.735Z,6.22
2018-04-22T15:28:49.343Z,7.60
2018-04-22T15:31:16.942Z,5.00
2018-04-22T15:33:44.556Z,5.87
2018-04-22T15:36:12.160Z,5.22
2018-04-22T15:38:40.699Z,7.45
2018-04-22T15:41:08.300Z,5.65
2018-04-22T15:43:36.662Z,6.93
2018-04-22T15:46:04.509Z,6.93
2018-04-22T15:48:32.221Z,4.20
2018-04-22T15:51:00.584Z,4.35
2018-04-22T15:53:28.237Z,6.28
2018-04-22T15:55:55.807Z,5.03
2018-04-22T15:58:25.026Z,9.70
2018-04-22T16:00:52.710Z,4.70
2018-04-22T16:03:20.328Z,6.55
2018-04-22T16:05:47.974Z,4.00
2018-04-22T16:08:15.651Z,6.50
2018-04-22T16:10:43.216Z,6.00
2018-04-22T16:13:10.891Z,9.38
2018-04-22T16:15:38.499Z,5.30
2018-04-22T16:18:06.145Z,4.45
2018-04-22T16:20:33.782Z,6.95
2018-04-22T16:23:01.470Z,7.22
2018-04-22T16:25:29.077Z,4.30
2018-04-22T16:27:57.458Z,5.97
2018-04-22T16:30:25.055Z,4.47
2018-04-22T16:32:52.703Z,5.20
2018-04-22T16:35:20.345Z,4.25
2018-04-22T16:37:47.987Z,5.43
2018-04-22T16:40:16.339Z,6.75
2018-04-22T16:42:44.796Z,12.00
2018-04-22T16:45:12.364Z,6.65
2018-04-22T16:47:39.997Z,4.82
2018-04-22T16:50:07.677Z,4.68
2018-04-22T16:52:35.332Z,4.32
2018-04-22T16:55:02.965Z,8.35
2018-04-22T16:57:30.576Z,5.25
2018-04-22T16:59:58.182Z,5.57
2018-04-22T17:02:26.756Z,6.45
2018-04-22T17:04:54.364Z,6.93
2018-04-22T17:07:21.956Z,5.75
2018-04-22T17:09:49.623Z,8.45
2018-04-22T17:12:18.075Z,7.75
2018-04-22T17:14:45.664Z,5.57
2018-04-22T17:17:14.041Z,7.55
2018-04-22T17:19:42.438Z,3.90
2018-04-22T17:22:10.088Z,6.22
2018-04-22T17:24:37.761Z,4.60
2018-04-22T17:27:05.930Z,7.50
2018-04-22T17:29:33.536Z,6.15
2018-04-22T17:32:01.135Z,7.57
2018-04-22T17:34:29.579Z,6.85
2018-04-22T17:36:57.223Z,6.80
2018-04-22T17:39:24.861Z,8.23
2018-04-22T17:41:52.451Z,7.32
2018-04-22T17:44:20.088Z,15.88
2018-04-22T17:46:47.750Z,12.68
2018-04-22T17:49:15.328Z,10.13
2018-04-22T17:51:42.977Z,11.70
2018-04-22T17:54:10.584Z,7.35
2018-04-22T17:56:39.024Z,8.15
2018-04-22T17:59:06.646Z,11.55
2018-04-22T18:01:34.291Z,5.75
2018-04-22T18:04:01.970Z,6.65
2018-04-22T18:06:29.568Z,10.13
2018-04-22T18:08:57.171Z,8.65
2018-04-22T18:11:25.559Z,9.60
2018-04-22T18:13:53.929Z,8.48
2018-04-22T18:16:22.294Z,6.90
2018-04-22T18:18:50.734Z,10.93
2018-04-22T18:21:18.296Z,9.23
2018-04-22T18:23:45.937Z,8.45
2018-04-22T18:26:13.517Z,16.95
2018-04-22T18:28:41.144Z,13.95
2018-04-22T18:31:08.756Z,8.48
2018-04-22T18:33:36.349Z,10.52
2018-04-22T18:36:04.742Z,10.80
2018-04-22T18:38:32.429Z,9.68
2018-04-22T18:41:00.039Z,11.55
2018-04-22T18:43:28.433Z,10.25
2018-04-22T18:45:56.790Z,7.82
2018-04-22T18:48:24.381Z,7.55
2018-04-22T18:50:51.966Z,7.60
2018-04-22T18:53:19.638Z,8.80
2018-04-22T18:55:47.260Z,9.40
2018-04-22T18:58:14.873Z,8.38
2018-04-22T19:00:42.476Z,11.00
2018-04-22T19:03:10.073Z,6.93
2018-04-22T19:05:37.678Z,10.45
2018-04-22T19:08:06.048Z,6.75
2018-04-22T19:10:33.635Z,10.52
2018-04-22T19:13:01.293Z,7.53
2018-04-22T19:15:28.942Z,7.35
2018-04-22T19:17:57.294Z,12.18
2018-04-22T19:20:24.890Z,9.15
2018-04-22T19:22:52.480Z,8.55
2018-04-22T19:25:20.092Z,7.82
2018-04-22T19:27:48.496Z,7.15
2018-04-22T19:30:16.104Z,9.70
2018-04-22T19:32:44.480Z,8.43
2018-04-22T19:35:12.085Z,8.55
2018-04-22T19:37:40.276Z,9.60
2018-04-22T19:40:07.897Z,7.75
2018-04-22T19:42:36.278Z,7.18
2018-04-22T19:45:04.644Z,7.78
2018-04-22T19:47:32.283Z,7.60
2018-04-22T19:50:00.701Z,10.45
2018-04-22T19:52:29.328Z,11.02
2018-04-22T19:54:57.019Z,10.18
2018-04-22T19:57:24.670Z,10.77
2018-04-22T19:59:53.012Z,9.30
2018-04-22T20:02:20.698Z,11.52
2018-04-22T20:04:48.334Z,8.45
2018-04-22T20:07:16.078Z,9.95
2018-04-22T20:09:44.682Z,9.60
2018-04-22T20:12:12.594Z,9.32
2018-04-22T20:14:41.027Z,13.55
2018-04-22T20:17:08.670Z,8.38
2018-04-22T20:19:36.476Z,9.30
2018-04-22T20:22:04.225Z,9.82
2018-04-22T20:24:32.732Z,8.10
2018-04-22T20:27:00.392Z,8.43
2018-04-22T20:29:28.152Z,8.90
2018-04-22T20:31:55.865Z,8.95
2018-04-22T20:34:25.478Z,8.50
2018-04-22T20:36:54.292Z,8.95
2018-04-22T20:39:21.855Z,12.35
2018-04-22T20:41:49.518Z,9.27
2018-04-22T20:44:17.274Z,9.43
2018-04-22T20:46:45.018Z,14.63
2018-04-22T20:49:12.789Z,8.60
2018-04-22T20:51:41.222Z,10.35
2018-04-22T20:54:09.737Z,14.80
2018-04-22T20:56:37.536Z,11.07
2018-04-22T20:59:05.368Z,10.05
2018-04-22T21:01:33.030Z,9.30
2018-04-22T21:04:00.718Z,10.52
2018-04-22T21:06:28.438Z,10.80
2018-04-22T21:08:56.184Z,11.52
2018-04-22T21:11:23.939Z,10.63
2018-04-22T21:13:52.483Z,15.48
2018-04-22T21:16:20.972Z,8.93
2018-04-22T21:18:48.665Z,8.33
2018-04-22T21:21:17.065Z,9.53
2018-04-22T21:23:44.832Z,11.07
2018-04-22T21:26:13.375Z,11.03
2018-04-22T21:28:41.874Z,10.97
2018-04-22T21:31:09.626Z,11.13
2018-04-22T21:33:37.385Z,11.93
2018-04-22T21:36:05.025Z,9.53
2018-04-22T21:38:32.797Z,12.00
2018-04-22T21:41:00.488Z,9.10
2018-04-22T21:43:28.927Z,10.98
2018-04-22T21:45:56.714Z,10.60
2018-04-22T21:48:24.397Z,7.97
2018-04-22T21:50:52.105Z,12.23
2018-04-22T21:53:19.755Z,10.40
2018-04-22T21:55:47.554Z,9.27
2018-04-22T21:58:15.957Z,7.57
2018-04-22T22:00:43.780Z,10.03
2018-04-22T22:03:11.479Z,11.60
2018-04-22T22:05:39.873Z,11.57
2018-04-22T22:08:08.441Z,9.63
2018-04-22T22:10:36.046Z,8.80
2018-04-22T22:13:04.493Z,9.13
2018-04-22T22:15:32.368Z,11.03
2018-04-22T22:18:00.000Z,10.03
2018-04-22T22:20:28.575Z,12.90
2018-04-22T22:22:56.346Z,10.93
2018-04-22T22:25:25.968Z,8.97
2018-04-22T22:27:54.529Z,11.50
2018-04-22T22:30:22.486Z,13.43
2018-04-22T22:32:50.101Z,11.07
2018-04-22T22:35:18.802Z,11.07
2018-04-22T22:37:46.437Z,9.87
2018-04-22T22:40:14.088Z,13.03
2018-04-22T22:42:42.440Z,10.07
2018-04-22T22:45:10.052Z,9.23
2018-04-22T22:47:37.653Z,11.67
2018-04-22T22:50:05.275Z,13.80
2018-04-22T22:52:32.893Z,10.27
2018-04-22T22:55:02.012Z,11.27
2018-04-22T22:57:29.616Z,11.03
2018-04-22T22:59:57.279Z,9.73
2018-04-22T23:02:24.937Z,9.83
2018-04-22T23:04:52.641Z,9.50
2018-04-22T23:07:21.835Z,10.30
2018-04-22T23:09:50.250Z,11.83
2018-04-22T23:12:17.866Z,10.80
2018-04-22T23:14:45.490Z,10.80
2018-04-22T23:17:13.125Z,11.63
2018-04-22T23:19:40.745Z,11.00
2018-04-22T23:22:09.136Z,11.73
2018-04-22T23:24:37.554Z,9.93
2018-04-22T23:27:05.171Z,11.93
2018-04-22T23:29:33.606Z,11.60
2018-04-22T23:32:01.195Z,10.70
2018-04-22T23:34:28.811Z,12.37
2018-04-22T23:36:56.515Z,13.90
2018-04-22T23:39:24.879Z,13.00
2018-04-22T23:41:52.579Z,11.23
2018-04-22T23:44:20.204Z,13.07
2018-04-22T23:46:47.847Z,13.77
2018-04-22T23:49:15.492Z,13.00
2018-04-22T23:51:43.228Z,11.13
2018-04-22T23:54:10.781Z,13.30
2018-04-22T23:56:38.442Z,12.93
2018-04-22T23:59:06.016Z,11.70
